Time;durP1;ratioP1;P1;durP2;ratioP2;P2;SDS_P1;SDS_P2;PMS_P1;PMS_P2;Temp;Humidity;BMP_temperature;BMP_pressure;BME280_temperature;BME280_humidity;BME280_pressure;Samples;Min_cycle;Max_cycle;Signal;HPM_P1;HPM_P2
2023/10/06 00:01:47;;;;;;;8.48;3.30;;;13.80;99.90;;;;;;5108713;27;20042;-64
2023/10/06 00:04:15;;;;;;;9.93;3.17;;;13.80;99.90;;;;;;5125224;27;20039;-64
2023/10/06 00:06:45;;;;;;;7.22;3.20;;;13.80;99.90;;;;;;5107575;27;20045;-64
2023/10/06 00:09:35;;;;;;;7.95;3.67;;;13.70;99.90;;;;;;5107197;27;20054;-64
2023/10/06 00:12:05;;;;;;;7.00;3.70;;;13.80;99.90;;;;;;5110073;27;20118;-66
2023/10/06 00:14:39;;;;;;;7.03;3.47;;;13.80;99.90;;;;;;5130918;27;20047;-65
2023/10/06 00:17:15;;;;;;;6.70;3.47;;;13.70;99.90;;;;;;5104675;27;20116;-66
2023/10/06 00:19:42;;;;;;;9.38;3.72;;;13.80;99.90;;;;;;5100754;27;20042;-64
2023/10/06 00:24:50;;;;;;;10.95;3.90;;;13.80;99.90;;;;;;5102567;27;20039;-64
2023/10/06 00:27:23;;;;;;;7.88;3.97;;;13.70;99.90;;;;;;5090923;27;20146;-63
2023/10/06 00:29:53;;;;;;;8.95;4.40;;;13.80;99.90;;;;;;5102644;27;20429;-65
2023/10/06 00:32:22;;;;;;;8.82;3.90;;;13.80;99.90;;;;;;5094479;27;20051;-65
2023/10/06 00:34:48;;;;;;;8.50;4.28;;;13.80;99.90;;;;;;5092412;27;20045;-64
2023/10/06 00:37:22;;;;;;;8.65;4.30;;;13.80;99.90;;;;;;5096416;27;20050;-63
2023/10/06 00:39:50;;;;;;;9.13;4.80;;;13.80;99.90;;;;;;5091282;27;20186;-64
2023/10/06 00:42:20;;;;;;;9.88;4.30;;;13.80;99.90;;;;;;5095530;27;20129;-63
2023/10/06 00:44:46;;;;;;;8.07;4.32;;;13.80;99.90;;;;;;5090847;27;20039;-65
2023/10/06 00:47:17;;;;;;;8.27;4.45;;;13.80;99.90;;;;;;5070404;27;20039;-65
2023/10/06 00:49:43;;;;;;;7.63;4.15;;;13.80;99.90;;;;;;5089522;27;20046;-67
2023/10/06 00:52:12;;;;;;;8.10;4.18;;;13.80;99.90;;;;;;5102554;27;20093;-64
2023/10/06 00:54:43;;;;;;;9.40;4.53;;;13.80;99.90;;;;;;5075586;27;20390;-64
2023/10/06 00:57:15;;;;;;;6.03;3.97;;;13.80;99.90;;;;;;5108339;27;20041;-64
2023/10/06 00:59:41;;;;;;;9.68;4.70;;;13.80;99.90;;;;;;5088829;27;20043;-65
2023/10/06 01:02:08;;;;;;;7.63;3.95;;;13.80;99.90;;;;;;5072003;27;20494;-63
2023/10/06 01:04:38;;;;;;;11.80;4.53;;;13.80;99.90;;;;;;5100153;27;20121;-65
2023/10/06 01:07:04;;;;;;;9.25;4.47;;;13.80;99.90;;;;;;5090803;27;20047;-64
2023/10/06 01:09:30;;;;;;;8.18;4.90;;;13.80;99.90;;;;;;5088025;27;20035;-65
2023/10/06 01:11:57;;;;;;;13.70;5.47;;;13.80;99.90;;;;;;5089137;27;20055;-65
2023/10/06 01:14:27;;;;;;;11.18;4.85;;;13.80;99.90;;;;;;5092258;27;20096;-64
2023/10/06 01:17:16;;;;;;;10.82;5.10;;;13.70;99.90;;;;;;5100031;27;20070;-65
2023/10/06 01:19:47;;;;;;;8.95;4.82;;;13.70;99.90;;;;;;5090538;27;20047;-66
2023/10/06 01:22:24;;;;;;;9.82;4.97;;;13.70;99.90;;;;;;5089832;27;20127;-63
2023/10/06 01:24:52;;;;;;;9.73;4.75;;;13.70;99.90;;;;;;5094374;27;20039;-64
2023/10/06 01:27:18;;;;;;;9.52;4.97;;;13.60;99.90;;;;;;5092347;27;20054;-65
2023/10/06 01:29:45;;;;;;;8.18;4.78;;;13.60;99.90;;;;;;5094580;27;20043;-62
2023/10/06 01:32:11;;;;;;;8.32;4.95;;;13.70;99.90;;;;;;5100776;27;20046;-65
2023/10/06 01:34:40;;;;;;;9.25;4.93;;;13.70;99.90;;;;;;5082925;27;20482;-65
2023/10/06 01:37:07;;;;;;;11.25;5.88;;;13.60;99.90;;;;;;5076288;27;20043;-66
2023/10/06 01:39:36;;;;;;;9.50;4.93;;;13.70;99.90;;;;;;5113449;27;20042;-66
2023/10/06 01:42:24;;;;;;;9.80;5.80;;;13.70;99.90;;;;;;5078670;27;20116;-66
2023/10/06 01:44:49;;;;;;;12.10;5.35;;;13.60;99.90;;;;;;5092397;27;20049;-64
2023/10/06 01:47:18;;;;;;;8.95;5.28;;;13.60;99.90;;;;;;5096108;27;20035;-64
2023/10/06 01:49:44;;;;;;;7.75;4.80;;;13.60;99.90;;;;;;5128025;27;20667;-64
2023/10/06 01:52:13;;;;;;;10.63;4.80;;;13.60;99.90;;;;;;5104717;27;20110;-65
2023/10/06 01:54:39;;;;;;;8.77;4.80;;;13.60;99.90;;;;;;5118240;27;20066;-65
2023/10/06 01:57:06;;;;;;;12.20;5.22;;;13.60;99.90;;;;;;5111955;27;20071;-64
2023/10/06 01:59:32;;;;;;;10.18;4.75;;;13.60;99.90;;;;;;5111089;27;20102;-64
2023/10/06 02:02:02;;;;;;;11.55;4.82;;;13.60;99.90;;;;;;5099553;27;20096;-65
2023/10/06 02:04:38;;;;;;;9.13;4.78;;;13.60;99.90;;;;;;5126626;27;20414;-66
2023/10/06 02:07:05;;;;;;;8.38;4.28;;;13.60;99.90;;;;;;5112026;27;20525;-65
2023/10/06 02:09:32;;;;;;;9.30;4.97;;;13.70;99.90;;;;;;5107413;27;20039;-64
2023/10/06 02:11:57;;;;;;;10.13;4.43;;;13.70;99.90;;;;;;5100531;28;20048;-64
2023/10/06 02:14:23;;;;;;;9.48;4.82;;;13.70;99.90;;;;;;5095489;28;20104;-65
2023/10/06 02:16:49;;;;;;;8.85;4.30;;;13.70;99.90;;;;;;5098257;28;20047;-66
2023/10/06 02:19:18;;;;;;;11.05;5.07;;;13.70;99.90;;;;;;5097984;28;20092;-64
2023/10/06 02:21:45;;;;;;;11.75;5.00;;;13.70;99.90;;;;;;5100218;28;20396;-64
2023/10/06 02:24:16;;;;;;;9.55;5.00;;;13.70;99.90;;;;;;5099090;28;20043;-64
2023/10/06 02:26:43;;;;;;;11.65;5.47;;;13.70;99.90;;;;;;5102027;28;20031;-64
2023/10/06 02:29:19;;;;;;;11.30;5.00;;;13.70;99.90;;;;;;5114065;28;20114;-64
2023/10/06 02:31:45;;;;;;;13.63;5.03;;;13.70;99.90;;;;;;5112421;28;20047;-64
2023/10/06 02:34:17;;;;;;;8.23;4.85;;;13.70;99.90;;;;;;5107761;28;20031;-64
2023/10/06 02:36:43;;;;;;;16.48;5.55;;;13.70;99.90;;;;;;5105308;28;20044;-64
2023/10/06 02:39:10;;;;;;;8.32;5.10;;;13.70;99.90;;;;;;5105963;28;20039;-65
2023/10/06 02:41:36;;;;;;;8.30;5.00;;;13.70;99.90;;;;;;5105699;28;20055;-65
2023/10/06 02:44:08;;;;;;;10.00;5.68;;;13.70;99.90;;;;;;5115912;27;20044;-66
2023/10/06 02:46:36;;;;;;;11.05;5.35;;;13.70;99.90;;;;;;5102695;28;20054;-64
2023/10/06 02:49:07;;;;;;;11.52;5.65;;;13.70;99.90;;;;;;5099759;28;20040;-64
2023/10/06 02:51:33;;;;;;;13.23;5.70;;;13.70;99.90;;;;;;5107604;28;20055;-65
2023/10/06 02:56:46;;;;;;;14.23;6.30;;;13.60;99.90;;;;;;5092625;28;20040;-64
2023/10/06 02:59:21;;;;;;;11.35;5.78;;;13.60;99.90;;;;;;5110114;28;20487;-64
2023/10/06 03:02:06;;;;;;;13.75;6.10;;;13.60;99.90;;;;;;5103845;28;20113;-64
2023/10/06 03:04:36;;;;;;;10.63;5.38;;;13.50;99.90;;;;;;5111525;28;20042;-64
2023/10/06 03:07:04;;;;;;;10.88;6.00;;;13.50;99.90;;;;;;5112436;28;20039;-66
2023/10/06 03:09:37;;;;;;;10.10;5.32;;;13.50;99.90;;;;;;5110791;28;20050;-65
2023/10/06 03:12:13;;;;;;;9.52;5.75;;;13.50;99.90;;;;;;5122554;27;20051;-64
2023/10/06 03:14:38;;;;;;;11.23;5.55;;;13.50;99.90;;;;;;5114604;27;20717;-64
2023/10/06 03:17:06;;;;;;;10.60;6.13;;;13.40;99.90;;;;;;5116280;27;20035;-65
2023/10/06 03:19:33;;;;;;;13.98;6.07;;;13.40;99.90;;;;;;5113970;27;20107;-64
2023/10/06 03:22:04;;;;;;;14.48;6.00;;;13.30;99.90;;;;;;5112524;27;20104;-65
2023/10/06 03:24:33;;;;;;;14.05;5.93;;;13.30;99.90;;;;;;5114933;27;20031;-66
2023/10/06 03:27:04;;;;;;;14.48;6.00;;;13.30;99.90;;;;;;5132123;27;20054;-64
2023/10/06 03:29:53;;;;;;;10.65;5.78;;;13.30;99.90;;;;;;5097856;27;20051;-64
2023/10/06 03:32:31;;;;;;;13.65;6.22;;;13.20;99.90;;;;;;5105180;27;20137;-65
2023/10/06 03:34:59;;;;;;;11.88;5.70;;;13.20;99.90;;;;;;5102528;27;20656;-64
2023/10/06 03:37:35;;;;;;;9.25;5.60;;;13.20;99.90;;;;;;5105162;27;20043;-65
2023/10/06 03:40:11;;;;;;;10.75;5.20;;;13.20;99.90;;;;;;5098684;27;20053;-64
2023/10/06 03:42:38;;;;;;;10.82;5.00;;;13.20;99.90;;;;;;5103324;27;20055;-65
2023/10/06 03:45:18;;;;;;;10.07;5.65;;;13.20;99.90;;;;;;5127103;27;20031;-64
2023/10/06 03:47:46;;;;;;;11.25;5.75;;;13.20;99.90;;;;;;5114171;27;20039;-65
2023/10/06 03:50:13;;;;;;;13.23;4.75;;;13.20;99.90;;;;;;5115444;27;20058;-64
2023/10/06 03:52:39;;;;;;;10.50;5.40;;;13.20;99.90;;;;;;5112752;27;20054;-64
2023/10/06 03:55:06;;;;;;;11.25;5.18;;;13.20;99.90;;;;;;5114558;27;20369;-64
2023/10/06 03:57:32;;;;;;;11.73;5.65;;;13.20;99.90;;;;;;5115511;27;20522;-63
2023/10/06 03:59:58;;;;;;;13.65;5.15;;;13.20;99.90;;;;;;5114437;27;20175;-63
2023/10/06 04:02:38;;;;;;;9.48;5.15;;;13.20;99.90;;;;;;5104254;27;20486;-66
2023/10/06 04:05:06;;;;;;;11.20;5.05;;;13.20;99.90;;;;;;5093994;27;20533;-66
2023/10/06 04:07:32;;;;;;;11.85;4.82;;;13.20;99.90;;;;;;5114986;27;20181;-64
2023/10/06 04:09:58;;;;;;;11.23;5.20;;;13.20;99.90;;;;;;5126564;27;20027;-64
2023/10/06 04:12:23;;;;;;;10.00;5.00;;;13.20;99.90;;;;;;5107100;27;20418;-66
2023/10/06 04:14:50;;;;;;;8.77;4.50;;;13.10;99.90;;;;;;5100641;27;20074;-65
2023/10/06 04:17:16;;;;;;;10.85;4.43;;;13.10;99.90;;;;;;5098140;27;20058;-65
2023/10/06 04:19:42;;;;;;;11.20;4.30;;;13.10;99.90;;;;;;5125243;27;20500;-66
2023/10/06 04:22:08;;;;;;;11.27;4.68;;;13.10;99.90;;;;;;5110378;27;20040;-65
2023/10/06 04:24:34;;;;;;;10.18;4.32;;;13.20;99.90;;;;;;5086724;27;20062;-64
2023/10/06 04:27:00;;;;;;;9.27;4.22;;;13.10;99.90;;;;;;5111384;27;20043;-63
2023/10/06 04:29:26;;;;;;;12.30;4.93;;;13.10;99.90;;;;;;5114187;27;20046;-64
2023/10/06 04:31:52;;;;;;;9.77;4.57;;;13.20;99.90;;;;;;5114064;27;20031;-65
2023/10/06 04:34:21;;;;;;;11.57;4.70;;;13.10;99.90;;;;;;5113662;27;20392;-65
2023/10/06 04:36:48;;;;;;;9.57;4.47;;;13.10;99.90;;;;;;5114448;27;20048;-65
2023/10/06 04:39:16;;;;;;;12.70;4.60;;;13.20;99.90;;;;;;5096923;27;20039;-65
2023/10/06 04:41:42;;;;;;;8.43;4.10;;;13.10;99.90;;;;;;5114019;27;20128;-64
2023/10/06 04:44:10;;;;;;;9.63;4.93;;;13.20;99.90;;;;;;5114335;27;20500;-67
2023/10/06 04:46:37;;;;;;;8.38;4.45;;;13.20;99.90;;;;;;5114477;27;20118;-64
2023/10/06 04:49:03;;;;;;;8.95;4.38;;;13.20;99.90;;;;;;5132462;27;20178;-64
2023/10/06 04:51:28;;;;;;;13.35;4.57;;;13.10;99.90;;;;;;5114150;27;20043;-65
2023/10/06 04:53:54;;;;;;;14.98;5.22;;;13.10;99.90;;;;;;5113568;27;20039;-66
2023/10/06 04:56:20;;;;;;;11.70;4.90;;;13.10;99.90;;;;;;5113388;27;20062;-66
2023/10/06 04:58:46;;;;;;;12.93;5.07;;;13.10;99.90;;;;;;5113393;27;20038;-64
2023/10/06 05:01:12;;;;;;;11.77;5.05;;;13.20;99.90;;;;;;5113274;27;20047;-65
2023/10/06 05:03:43;;;;;;;9.95;4.50;;;13.20;99.90;;;;;;5112795;27;20039;-64
2023/10/06 05:06:13;;;;;;;10.48;4.93;;;13.10;99.90;;;;;;5114842;27;20107;-64
2023/10/06 05:08:40;;;;;;;9.25;4.55;;;13.10;99.90;;;;;;5131956;27;20047;-64
2023/10/06 05:11:06;;;;;;;7.00;4.35;;;13.10;99.90;;;;;;5094559;27;20305;-65
2023/10/06 05:13:34;;;;;;;12.05;4.85;;;13.10;99.90;;;;;;5095557;27;20062;-64
2023/10/06 05:16:01;;;;;;;14.68;5.78;;;13.20;99.90;;;;;;5113052;27;20039;-66
2023/10/06 05:18:27;;;;;;;8.18;5.03;;;13.20;99.90;;;;;;5112053;27;20050;-66
2023/10/06 05:20:52;;;;;;;8.95;4.88;;;13.20;99.90;;;;;;5111946;27;20035;-65
2023/10/06 05:23:20;;;;;;;11.55;5.05;;;13.20;99.90;;;;;;5113288;27;20163;-66
2023/10/06 05:25:46;;;;;;;9.77;5.47;;;13.20;99.90;;;;;;5113354;27;20071;-65
2023/10/06 05:28:16;;;;;;;10.38;4.90;;;13.20;99.90;;;;;;5112975;27;20074;-66
2023/10/06 05:30:43;;;;;;;9.82;5.10;;;13.20;99.90;;;;;;5113445;27;20096;-64
2023/10/06 05:33:10;;;;;;;11.98;5.05;;;13.30;99.90;;;;;;5113044;27;20031;-64
2023/10/06 05:35:40;;;;;;;10.38;5.10;;;13.30;99.90;;;;;;5112934;27;20038;-64
2023/10/06 05:38:13;;;;;;;11.60;5.38;;;13.30;99.90;;;;;;5113270;27;20039;-63
2023/10/06 05:40:49;;;;;;;13.05;5.13;;;13.30;99.90;;;;;;5112530;27;20039;-64
2023/10/06 05:43:18;;;;;;;9.57;4.57;;;13.30;99.90;;;;;;5112950;27;20047;-64
2023/10/06 05:45:45;;;;;;;11.30;5.40;;;13.30;99.90;;;;;;5113238;27;20039;-65
2023/10/06 05:48:12;;;;;;;16.27;6.15;;;13.30;99.90;;;;;;5111518;27;20050;-63
2023/10/06 05:50:40;;;;;;;9.63;4.97;;;13.40;99.90;;;;;;5112838;27;20035;-64
2023/10/06 05:53:12;;;;;;;12.27;5.88;;;13.40;99.90;;;;;;5113302;27;20482;-65
2023/10/06 05:55:41;;;;;;;12.73;5.63;;;13.40;99.90;;;;;;5113317;27;20981;-66
2023/10/06 05:58:14;;;;;;;12.07;5.85;;;13.40;99.90;;;;;;5112485;27;20043;-65
2023/10/06 06:00:55;;;;;;;10.15;5.60;;;13.50;99.90;;;;;;5111695;27;20050;-63
2023/10/06 06:03:23;;;;;;;9.65;6.00;;;13.50;99.90;;;;;;5110248;27;20042;-65
2023/10/06 06:05:52;;;;;;;8.60;4.85;;;13.50;99.90;;;;;;5124375;27;20100;-65
2023/10/06 06:08:18;;;;;;;11.13;6.05;;;13.60;99.90;;;;;;5095000;28;20043;-66
2023/10/06 06:10:45;;;;;;;13.38;5.65;;;13.60;99.90;;;;;;5112082;27;20379;-66
2023/10/06 06:13:13;;;;;;;11.25;5.63;;;13.60;99.90;;;;;;5103341;28;20039;-64
2023/10/06 06:15:39;;;;;;;11.38;5.78;;;13.60;99.90;;;;;;5112194;28;20047;-65
2023/10/06 06:18:05;;;;;;;11.05;5.68;;;13.70;99.90;;;;;;5108973;28;20401;-64
2023/10/06 06:20:31;;;;;;;11.45;5.40;;;13.60;99.90;;;;;;5100335;28;20043;-66
2023/10/06 06:23:02;;;;;;;13.48;5.70;;;13.70;99.90;;;;;;5109876;28;20507;-66
2023/10/06 06:25:29;;;;;;;10.18;5.40;;;13.70;99.90;;;;;;5094874;28;20196;-64
2023/10/06 06:27:55;;;;;;;12.68;6.03;;;13.70;99.90;;;;;;5104876;28;20051;-66
2023/10/06 06:30:23;;;;;;;13.13;5.78;;;13.70;99.90;;;;;;5112393;28;20051;-64
2023/10/06 06:32:49;;;;;;;13.02;5.72;;;13.80;99.90;;;;;;5112535;28;20035;-66
2023/10/06 06:35:23;;;;;;;12.82;5.43;;;13.80;99.90;;;;;;5112798;28;20035;-65
2023/10/06 06:37:59;;;;;;;12.27;5.90;;;13.80;99.90;;;;;;5112395;28;20031;-65
2023/10/06 06:40:26;;;;;;;11.90;5.60;;;13.80;99.90;;;;;;5112581;28;20083;-64
2023/10/06 06:42:52;;;;;;;12.25;5.55;;;13.80;99.90;;;;;;5112525;28;20035;-66
2023/10/06 06:45:24;;;;;;;11.93;5.53;;;13.80;99.90;;;;;;5131138;28;20579;-65
2023/10/06 06:47:50;;;;;;;12.63;5.20;;;13.80;99.90;;;;;;5112229;28;20043;-67
2023/10/06 06:50:17;;;;;;;15.48;6.05;;;13.80;99.90;;;;;;5112758;28;20291;-66
2023/10/06 06:52:44;;;;;;;11.90;5.13;;;13.70;99.90;;;;;;5112402;28;20036;-65
2023/10/06 06:55:13;;;;;;;10.88;5.72;;;13.70;99.90;;;;;;5112708;28;20165;-64
2023/10/06 06:57:50;;;;;;;12.57;5.50;;;13.80;99.90;;;;;;5111284;28;20043;-66
2023/10/06 07:00:18;;;;;;;12.10;5.20;;;13.80;99.90;;;;;;5123974;28;20039;-64
2023/10/06 07:02:50;;;;;;;11.18;6.05;;;13.80;99.90;;;;;;5130526;28;20051;-64
2023/10/06 07:05:17;;;;;;;;;;;13.90;99.90;;;;;;5113119;28;20435;-65
2023/10/06 07:07:43;;;;;;;14.35;5.40;;;13.90;99.90;;;;;;5112592;28;20286;-65
2023/10/06 07:10:14;;;;;;;14.68;5.53;;;13.80;99.90;;;;;;5112447;28;20393;-65
2023/10/06 07:12:44;;;;;;;11.82;5.88;;;13.80;99.90;;;;;;5113277;27;20077;-64
2023/10/06 07:15:20;;;;;;;12.10;5.20;;;13.80;99.90;;;;;;5116131;27;20122;-65
2023/10/06 07:17:54;;;;;;;10.13;5.28;;;13.90;99.90;;;;;;5115898;27;20042;-65
2023/10/06 07:20:27;;;;;;;15.45;5.40;;;13.80;99.90;;;;;;5115908;27;20057;-64
2023/10/06 07:22:54;;;;;;;11.48;5.10;;;13.80;99.90;;;;;;5115818;27;20049;-64
2023/10/06 07:25:21;;;;;;;15.77;5.70;;;13.80;99.90;;;;;;5116190;27;20050;-64
2023/10/06 07:27:55;;;;;;;10.50;5.43;;;13.90;99.90;;;;;;5115300;27;20047;-63
2023/10/06 07:30:22;;;;;;;12.77;5.22;;;13.90;99.90;;;;;;5116275;27;20179;-64
2023/10/06 07:32:50;;;;;;;13.93;5.38;;;14.00;99.90;;;;;;5115679;27;20050;-65
2023/10/06 07:35:18;;;;;;;10.80;4.95;;;14.00;99.90;;;;;;5116055;27;20134;-65
2023/10/06 07:37:49;;;;;;;11.85;5.38;;;14.00;99.90;;;;;;5115095;27;20511;-66
2023/10/06 07:40:21;;;;;;;12.55;5.00;;;14.10;99.90;;;;;;5098938;27;20117;-66
2023/10/06 07:42:51;;;;;;;11.30;5.10;;;14.20;99.90;;;;;;5115930;27;20074;-66
2023/10/06 07:45:18;;;;;;;14.35;5.38;;;14.30;99.90;;;;;;5115675;27;20046;-66
2023/10/06 07:47:44;;;;;;;11.55;4.95;;;14.30;99.90;;;;;;5115629;27;20494;-65
2023/10/06 07:50:15;;;;;;;14.00;6.72;;;14.40;99.90;;;;;;5133891;27;20061;-66
2023/10/06 07:52:42;;;;;;;12.45;5.80;;;14.50;99.90;;;;;;5097899;27;20126;-65
2023/10/06 07:55:11;;;;;;;11.52;5.20;;;14.40;99.90;;;;;;5098424;27;20076;-67
2023/10/06 07:57:41;;;;;;;11.85;5.40;;;14.50;99.90;;;;;;5115188;27;20047;-65
2023/10/06 08:00:12;;;;;;;12.60;5.20;;;14.40;99.90;;;;;;5115285;27;20127;-64
2023/10/06 08:02:39;;;;;;;11.07;5.10;;;14.40;99.90;;;;;;5097852;27;20062;-66
2023/10/06 08:05:12;;;;;;;13.38;5.15;;;14.40;99.90;;;;;;5115002;27;20084;-66
2023/10/06 08:07:39;;;;;;;10.48;5.18;;;14.30;99.90;;;;;;5098158;27;20047;-65
2023/10/06 08:10:06;;;;;;;8.65;5.22;;;14.40;99.90;;;;;;5114371;27;20042;-64
2023/10/06 08:12:35;;;;;;;8.57;4.90;;;14.40;99.90;;;;;;5115571;27;20390;-65
2023/10/06 08:15:01;;;;;;;17.17;5.13;;;14.40;99.90;;;;;;5114592;27;20048;-66
2023/10/06 08:17:27;;;;;;;10.65;5.35;;;14.40;99.90;;;;;;5114593;27;20188;-64
2023/10/06 08:19:55;;;;;;;13.02;5.00;;;14.40;99.90;;;;;;5114536;27;20096;-63
2023/10/06 08:22:24;;;;;;;11.68;5.05;;;14.50;99.90;;;;;;5114900;27;20046;-66
2023/10/06 08:24:50;;;;;;;10.95;5.50;;;14.50;99.90;;;;;;5114638;27;20114;-65
2023/10/06 08:27:21;;;;;;;10.27;5.47;;;14.60;99.90;;;;;;5114717;27;20148;-65
2023/10/06 08:29:47;;;;;;;13.85;5.20;;;14.60;99.90;;;;;;5113948;27;20107;-64
2023/10/06 08:32:13;;;;;;;10.05;5.63;;;14.60;99.90;;;;;;5114484;27;20110;-65
2023/10/06 08:34:39;;;;;;;12.00;5.70;;;14.60;99.90;;;;;;5114814;27;20611;-66
2023/10/06 08:37:10;;;;;;;12.10;6.10;;;14.60;99.90;;;;;;5114427;27;20095;-64
2023/10/06 08:39:40;;;;;;;13.05;5.93;;;14.60;99.90;;;;;;5114549;27;20493;-67
2023/10/06 08:42:17;;;;;;;10.57;5.78;;;14.60;99.90;;;;;;5114223;27;20043;-63
2023/10/06 08:44:44;;;;;;;11.82;5.57;;;14.60;99.90;;;;;;5114861;27;20046;-64
2023/10/06 08:47:15;;;;;;;12.20;5.82;;;14.70;99.90;;;;;;5107368;27;20047;-64
2023/10/06 08:49:43;;;;;;;18.48;6.43;;;14.70;99.90;;;;;;5113987;27;20043;-65
2023/10/06 08:52:12;;;;;;;13.45;5.57;;;14.70;99.90;;;;;;5112156;27;20068;-65
2023/10/06 08:54:43;;;;;;;12.48;5.68;;;14.70;99.90;;;;;;5114224;27;20122;-63
2023/10/06 08:57:12;;;;;;;13.43;6.77;;;14.70;99.90;;;;;;5096280;27;20039;-64
2023/10/06 08:59:39;;;;;;;13.82;5.70;;;14.70;99.90;;;;;;5113955;27;20176;-64
2023/10/06 09:02:05;;;;;;;11.40;5.65;;;14.70;99.90;;;;;;5114309;27;20397;-64
2023/10/06 09:04:35;;;;;;;11.57;6.10;;;14.80;99.90;;;;;;5113432;27;20063;-65
2023/10/06 09:07:12;;;;;;;9.70;5.90;;;14.80;99.90;;;;;;5113920;27;20054;-67
2023/10/06 09:09:43;;;;;;;11.05;5.88;;;14.90;99.90;;;;;;5113841;27;20047;-64
2023/10/06 09:12:22;;;;;;;13.90;5.95;;;14.90;99.90;;;;;;5131797;27;20046;-64
2023/10/06 09:14:54;;;;;;;13.55;5.97;;;14.90;99.90;;;;;;5096215;27;20039;-64
2023/10/06 09:17:35;;;;;;;13.60;5.78;;;15.00;99.90;;;;;;5096372;27;20054;-65
2023/10/06 09:20:00;;;;;;;13.00;6.35;;;15.00;99.90;;;;;;5132395;27;20102;-66
2023/10/06 09:22:44;;;;;;;11.88;5.95;;;15.00;99.90;;;;;;5095922;27;20126;-65
2023/10/06 09:25:10;;;;;;;14.15;5.93;;;15.00;99.90;;;;;;5113078;27;20035;-63
2023/10/06 09:27:37;;;;;;;11.43;5.95;;;15.10;99.90;;;;;;5095432;27;20104;-65
2023/10/06 09:30:11;;;;;;;14.65;6.50;;;15.10;99.90;;;;;;5095946;27;20083;-65
2023/10/06 09:32:40;;;;;;;14.02;6.15;;;15.20;99.90;;;;;;5113778;27;20531;-66
2023/10/06 09:35:22;;;;;;;12.73;5.90;;;15.30;99.90;;;;;;5131381;27;20030;-63
2023/10/06 09:37:51;;;;;;;14.10;5.97;;;15.40;99.90;;;;;;5113141;27;20053;-63
2023/10/06 09:40:20;;;;;;;12.70;5.72;;;15.50;99.90;;;;;;5113399;27;20035;-65
2023/10/06 09:42:54;;;;;;;11.30;5.47;;;15.60;99.90;;;;;;5113823;27;20512;-65
2023/10/06 09:45:21;;;;;;;11.77;5.80;;;15.70;99.90;;;;;;5113424;27;20135;-65
2023/10/06 09:47:56;;;;;;;10.55;5.20;;;15.70;99.90;;;;;;5113225;27;20381;-64
2023/10/06 09:50:22;;;;;;;10.52;4.95;;;15.80;99.90;;;;;;5113061;27;20031;-65
2023/10/06 09:52:49;;;;;;;10.50;5.38;;;15.90;99.90;;;;;;5131779;27;20035;-65
2023/10/06 09:55:20;;;;;;;10.10;5.05;;;16.10;99.90;;;;;;5112935;27;20119;-64
2023/10/06 09:57:48;;;;;;;14.60;5.20;;;16.50;99.90;;;;;;5112695;27;20031;-65
2023/10/06 10:00:19;;;;;;;12.18;5.50;;;17.00;99.90;;;;;;5113213;27;20042;-66
2023/10/06 10:02:48;;;;;;;8.52;4.63;;;17.20;99.90;;;;;;5112930;27;20134;-64
2023/10/06 10:05:18;;;;;;;9.05;4.30;;;17.70;99.90;;;;;;5131611;27;20042;-64
2023/10/06 10:07:50;;;;;;;7.03;4.22;;;18.10;99.90;;;;;;5100309;28;20130;-63
2023/10/06 10:10:23;;;;;;;9.90;4.07;;;18.10;99.90;;;;;;5095222;27;20038;-63
2023/10/06 10:12:57;;;;;;;6.45;4.25;;;18.00;99.90;;;;;;5095868;27;20050;-65
2023/10/06 10:15:42;;;;;;;9.68;4.28;;;17.80;99.90;;;;;;5094459;28;20051;-63
2023/10/06 10:18:38;;;;;;;8.27;4.07;;;17.60;99.90;;;;;;5093959;28;20047;-64
2023/10/06 10:21:08;;;;;;;9.15;4.00;;;17.40;99.90;;;;;;5105161;28;20394;-64
2023/10/06 10:23:37;;;;;;;10.40;5.10;;;17.30;99.90;;;;;;5112373;28;20104;-65
2023/10/06 10:26:22;;;;;;;6.93;4.07;;;17.30;99.90;;;;;;5112370;28;20039;-66
2023/10/06 10:29:12;;;;;;;12.52;4.60;;;17.20;99.90;;;;;;5112400;28;20082;-65
2023/10/06 10:31:51;;;;;;;10.88;4.30;;;17.20;99.90;;;;;;5112094;28;20043;-64
2023/10/06 10:34:23;;;;;;;9.38;3.85;;;17.20;99.90;;;;;;5095195;28;20031;-64
2023/10/06 10:37:12;;;;;;;9.48;4.40;;;17.30;99.90;;;;;;5110856;28;20043;-65
2023/10/06 10:39:49;;;;;;;8.70;4.18;;;17.40;99.90;;;;;;5100219;28;20108;-65
2023/10/06 10:42:22;;;;;;;10.38;4.22;;;17.70;99.90;;;;;;5095313;28;20096;-64
2023/10/06 10:44:49;;;;;;;12.18;4.93;;;17.70;99.90;;;;;;5123750;27;20118;-63
2023/10/06 10:47:22;;;;;;;8.15;3.72;;;17.70;99.90;;;;;;5116168;27;20385;-65
2023/10/06 10:49:48;;;;;;;12.88;4.40;;;17.60;99.90;;;;;;5116236;27;20062;-65
2023/10/06 10:52:14;;;;;;;13.48;4.20;;;17.60;99.90;;;;;;5098802;27;20051;-64
2023/10/06 10:54:42;;;;;;;11.30;3.83;;;17.40;99.90;;;;;;5116257;27;20027;-65
2023/10/06 10:57:18;;;;;;;12.15;4.85;;;17.30;99.90;;;;;;5116453;27;20047;-63
2023/10/06 11:02:49;;;;;;;8.88;3.90;;;17.10;99.90;;;;;;5116022;27;20050;-63
2023/10/06 11:05:20;;;;;;;13.13;4.97;;;17.10;99.90;;;;;;5114482;27;20112;-63
2023/10/06 11:07:58;;;;;;;8.85;4.03;;;17.00;99.90;;;;;;5096353;27;20047;-65
2023/10/06 11:10:26;;;;;;;11.75;4.80;;;17.00;99.90;;;;;;5080504;27;21556;-65
2023/10/06 11:13:15;;;;;;;15.27;4.30;;;17.00;99.90;;;;;;5098071;27;20039;-64
2023/10/06 11:15:42;;;;;;;11.50;3.78;;;17.00;99.90;;;;;;5126544;27;20118;-63
2023/10/06 11:18:09;;;;;;;9.65;3.67;;;17.00;99.90;;;;;;5098446;27;20047;-63
2023/10/06 11:20:39;;;;;;;8.20;4.03;;;17.00;99.90;;;;;;5116404;27;20054;-63
2023/10/06 11:23:05;;;;;;;10.10;3.72;;;17.10;99.90;;;;;;5116001;27;20147;-64
2023/10/06 11:25:33;;;;;;;11.93;4.18;;;17.10;99.90;;;;;;5115812;27;20092;-65
2023/10/06 11:28:08;;;;;;;9.10;4.20;;;17.20;99.90;;;;;;5133302;27;20486;-63
2023/10/06 11:30:38;;;;;;;13.88;4.00;;;17.30;99.90;;;;;;5114025;27;20047;-65
2023/10/06 11:33:08;;;;;;;12.48;3.92;;;17.40;99.90;;;;;;5115617;27;20039;-64
2023/10/06 11:35:34;;;;;;;8.13;3.40;;;17.40;99.90;;;;;;5115595;27;20054;-63
2023/10/06 11:38:05;;;;;;;10.95;3.70;;;17.50;99.90;;;;;;5115934;27;20451;-64
2023/10/06 11:40:32;;;;;;;9.57;3.92;;;17.60;99.90;;;;;;5115843;27;20035;-64
2023/10/06 11:43:12;;;;;;;8.88;3.72;;;17.50;99.90;;;;;;5115625;27;20122;-65
2023/10/06 11:45:38;;;;;;;8.73;3.75;;;17.50;99.90;;;;;;5115336;27;20103;-64
2023/10/06 11:48:05;;;;;;;10.45;4.03;;;17.40;99.90;;;;;;5133770;27;20043;-63
2023/10/06 11:50:33;;;;;;;14.25;4.18;;;17.40;99.90;;;;;;5115757;27;20393;-63
2023/10/06 11:52:59;;;;;;;10.88;4.10;;;17.40;99.90;;;;;;5114891;27;20047;-64
2023/10/06 11:55:29;;;;;;;9.15;3.63;;;17.40;99.90;;;;;;5134614;27;20561;-64
2023/10/06 11:57:55;;;;;;;12.18;4.22;;;17.50;99.90;;;;;;5097084;28;20074;-64
2023/10/06 12:00:41;;;;;;;12.45;4.75;;;17.50;99.90;;;;;;5114548;27;20047;-63
2023/10/06 12:03:11;;;;;;;9.25;3.85;;;17.60;99.90;;;;;;5115470;27;20103;-65
2023/10/06 12:05:41;;;;;;;10.65;3.50;;;17.60;99.90;;;;;;5115530;27;20049;-65
2023/10/06 12:08:12;;;;;;;7.25;3.30;;;17.70;99.90;;;;;;5114419;27;20074;-63
2023/10/06 12:10:51;;;;;;;10.02;3.92;;;17.70;99.90;;;;;;5115142;27;20039;-64
2023/10/06 12:13:18;;;;;;;9.88;4.10;;;17.80;99.90;;;;;;5098107;27;20031;-63
2023/10/06 12:15:44;;;;;;;10.70;3.90;;;17.80;99.90;;;;;;5114703;27;20093;-63
2023/10/06 12:18:11;;;;;;;9.43;3.85;;;17.90;99.90;;;;;;5133034;27;20099;-63
2023/10/06 12:20:37;;;;;;;11.45;3.85;;;18.00;99.90;;;;;;5114997;27;20154;-64
2023/10/06 12:23:02;;;;;;;9.07;4.00;;;18.10;99.90;;;;;;5114791;27;20452;-65
2023/10/06 12:25:29;;;;;;;9.68;3.90;;;18.20;99.90;;;;;;5114955;27;20088;-63
2023/10/06 12:27:56;;;;;;;10.05;3.58;;;18.20;99.90;;;;;;5133050;27;20489;-63
2023/10/06 12:30:24;;;;;;;9.23;3.60;;;18.30;99.90;;;;;;5097664;27;20125;-64
2023/10/06 12:32:50;;;;;;;12.27;3.90;;;18.40;99.90;;;;;;5114776;27;20063;-64
2023/10/06 12:35:18;;;;;;;7.15;3.50;;;18.50;99.90;;;;;;5114527;27;20035;-64
2023/10/06 12:37:45;;;;;;;9.98;3.33;;;18.60;99.90;;;;;;5114849;27;20420;-62
2023/10/06 12:40:14;;;;;;;9.60;3.90;;;18.70;99.90;;;;;;5113890;27;20050;-64
2023/10/06 12:42:42;;;;;;;10.55;3.30;;;18.90;99.90;;;;;;5114648;27;20043;-64
2023/10/06 12:45:12;;;;;;;7.75;3.60;;;18.90;99.90;;;;;;5114338;27;20046;-64
2023/10/06 12:47:39;;;;;;;9.25;3.00;;;18.90;99.90;;;;;;5114627;27;20031;-64
2023/10/06 12:50:06;;;;;;;8.13;3.20;;;19.00;99.90;;;;;;5132471;27;20035;-62
2023/10/06 12:52:36;;;;;;;6.57;3.00;;;18.90;99.90;;;;;;5114816;27;20493;-63
2023/10/06 12:55:10;;;;;;;7.80;3.22;;;18.90;99.90;;;;;;5114485;27;20050;-65
2023/10/06 12:57:40;;;;;;;7.93;2.95;;;18.70;99.90;;;;;;5111348;27;20042;-64
2023/10/06 13:00:10;;;;;;;8.38;2.92;;;18.70;99.90;;;;;;5132218;27;20038;-62
2023/10/06 13:02:38;;;;;;;9.98;3.25;;;18.50;99.90;;;;;;5113926;27;20035;-64